Time;durP1;ratioP1;P1;durP2;ratioP2;P2;SDS_P1;SDS_P2;PMS_P1;PMS_P2;Temp;Humidity;BMP_temperature;BMP_pressure;BME280_temperature;BME280_humidity;BME280_pressure;Samples;Min_cycle;Max_cycle;Signal;HPM_P1;HPM_P2
2022/09/24 00:02:02;;;;;;;;;;;;;;;;;;5075795;28;20096;-79
2022/09/24 00:04:48;;;;;;;;;;;;;;;;;;5077575;28;19926;-80
2022/09/24 00:07:35;;;;;;;;;;;;;;;;;;5080100;28;19916;-79
2022/09/24 00:10:21;;;;;;;;;;;;;;;;;;5080156;28;20015;-79
2022/09/24 00:13:08;;;;;;;;;;;;;;;;;;5084098;28;19912;-79
2022/09/24 00:15:55;;;;;;;;;;;;;;;;;;5065276;28;20998;-79
2022/09/24 00:18:41;;;;;;;;;;;;;;;;;;5080060;28;19916;-79
2022/09/24 00:21:28;;;;;;;;;;;;;;;;;;5081490;28;19908;-78
2022/09/24 00:27:19;;;;;;;;;;;;;;;;;;5063567;28;20228;-77
2022/09/24 00:30:06;;;;;;;;;;;;;;;;;;5057573;28;19920;-78
2022/09/24 00:32:52;;;;;;;;;;;;;;;;;;5045092;28;20006;-78
2022/09/24 00:35:40;;;;;;;;;;;;;;;;;;5069226;28;20402;-78
2022/09/24 00:38:27;;;;;;;;;;;;;;;;;;5062858;28;20368;-78
2022/09/24 00:41:13;;;;;;;;;;;;;;;;;;5083651;28;19927;-78
2022/09/24 00:44:00;;;;;;;;;;;;;;;;;;5039974;28;19921;-78
2022/09/24 00:46:46;;;;;;;;;;;;;;;;;;5072622;28;19916;-79
2022/09/24 00:49:33;;;;;;;;;;;;;;;;;;5062193;28;19928;-78
2022/09/24 00:52:19;;;;;;;;;;;;;;;;;;5046708;28;19916;-78
2022/09/24 00:55:05;;;;;;;;;;;;;;;;;;5071221;28;19912;-78
2022/09/24 00:57:52;;;;;;;;;;;;;;;;;;5060016;28;19919;-78
2022/09/24 01:00:38;;;;;;;;;;;;;;;;;;5056906;28;19931;-78
2022/09/24 01:03:25;;;;;;;;;;;;;;;;;;5059821;28;19932;-78
2022/09/24 01:06:11;;;;;;;;;;;;;;;;;;5062581;28;19923;-79
2022/09/24 01:08:58;;;;;;;;;;;;;;;;;;5070358;28;19912;-79
2022/09/24 01:11:44;;;;;;;;;;;;;;;;;;5059848;28;19916;-79
2022/09/24 01:14:31;;;;;;;;;;;;;;;;;;5063199;28;19917;-78
2022/09/24 01:17:18;;;;;;;;;;;;;;;;;;5064971;28;19919;-78
2022/09/24 01:20:04;;;;;;;;;;;;;;;;;;5057899;28;19923;-78
2022/09/24 01:22:51;;;;;;;;;;;;;;;;;;5073933;28;19928;-78
2022/09/24 01:25:37;;;;;;;;;;;;;;;;;;5066442;28;19915;-78
2022/09/24 01:28:24;;;;;;;;;;;;;;;;;;5091600;28;20292;-78
2022/09/24 01:31:12;;;;;;;;;;;;;;;;;;5084183;28;20296;-78
2022/09/24 01:33:59;;;;;;;;;;;;;;;;;;5075212;28;19920;-79
2022/09/24 01:36:45;;;;;;;;;;;;;;;;;;5087003;28;20296;-78
2022/09/24 01:39:32;;;;;;;;;;;;;;;;;;5084677;28;19916;-78
2022/09/24 01:42:19;;;;;;;;;;;;;;;;;;5089048;28;19915;-78
2022/09/24 01:45:05;;;;;;;;;;;;;;;;;;5089369;28;19927;-78
2022/09/24 01:47:51;;;;;;;;;;;;;;;;;;5088978;28;19914;-78
2022/09/24 01:50:39;;;;;;;;;;;;;;;;;;5089600;28;19923;-78
2022/09/24 01:53:25;;;;;;;;;;;;;;;;;;5086335;28;19922;-77
2022/09/24 01:56:12;;;;;;;;;;;;;;;;;;5080734;28;20263;-77
2022/09/24 01:58:58;;;;;;;;;;;;;;;;;;5084367;28;19923;-77
2022/09/24 02:01:45;;;;;;;;;;;;;;;;;;5075134;28;20363;-78
2022/09/24 02:04:31;;;;;;;;;;;;;;;;;;5079728;28;19931;-78
2022/09/24 02:07:20;;;;;;;;;;;;;;;;;;5059408;28;19930;-78
2022/09/24 02:10:07;;;;;;;;;;;;;;;;;;5071894;28;19913;-77
2022/09/24 02:12:53;;;;;;;;;;;;;;;;;;5083450;28;19912;-77
2022/09/24 02:15:40;;;;;;;;;;;;;;;;;;5078605;28;19919;-78
2022/09/24 02:18:26;;;;;;;;;;;;;;;;;;5078889;28;19924;-78
2022/09/24 02:21:13;;;;;;;;;;;;;;;;;;5090600;28;19941;-78
2022/09/24 02:23:59;;;;;;;;;;;;;;;;;;5089899;28;19920;-78
2022/09/24 02:26:46;;;;;;;;;;;;;;;;;;5099866;28;20302;-77
2022/09/24 02:29:32;;;;;;;;;;;;;;;;;;5076073;28;20008;-79
2022/09/24 02:32:19;;;;;;;;;;;;;;;;;;5076092;28;19912;-80
2022/09/24 02:35:05;;;;;;;;;;;;;;;;;;5079926;28;19916;-79
2022/09/24 02:37:51;;;;;;;;;;;;;;;;;;5077367;28;19909;-77
2022/09/24 02:40:38;;;;;;;;;;;;;;;;;;5093951;28;19912;-78
2022/09/24 02:43:25;;;;;;;;;;;;;;;;;;5089425;28;19920;-78
2022/09/24 02:46:11;;;;;;;;;;;;;;;;;;5084949;28;20011;-77
2022/09/24 02:48:57;;;;;;;;;;;;;;;;;;5088319;28;19971;-78
2022/09/24 02:51:44;;;;;;;;;;;;;;;;;;5103933;28;20003;-78
2022/09/24 02:54:30;;;;;;;;;;;;;;;;;;5077791;28;19914;-78
2022/09/24 02:57:17;;;;;;;;;;;;;;;;;;5090446;27;19912;-79
2022/09/24 03:00:05;;;;;;;;;;;;;;;;;;5075409;28;19912;-80
2022/09/24 03:02:51;;;;;;;;;;;;;;;;;;5083039;28;19927;-80
2022/09/24 03:05:37;;;;;;;;;;;;;;;;;;5086640;28;19946;-80
2022/09/24 03:08:24;;;;;;;;;;;;;;;;;;5065272;28;19916;-79
2022/09/24 03:11:10;;;;;;;;;;;;;;;;;;5073439;28;19915;-79
2022/09/24 03:13:57;;;;;;;;;;;;;;;;;;5086126;28;19908;-79
2022/09/24 03:16:43;;;;;;;;;;;;;;;;;;5087384;28;19943;-78
2022/09/24 03:19:30;;;;;;;;;;;;;;;;;;5093306;28;19919;-78
2022/09/24 03:22:16;;;;;;;;;;;;;;;;;;5088300;28;19915;-78
2022/09/24 03:25:03;;;;;;;;;;;;;;;;;;5080481;28;19923;-77
2022/09/24 03:27:49;;;;;;;;;;;;;;;;;;5098814;28;19954;-78
2022/09/24 03:33:41;;;;;;;;;;;;;;;;;;5087749;28;19923;-77
2022/09/24 03:36:27;;;;;;;;;;;;;;;;;;5075651;28;19909;-78
2022/09/24 03:39:14;;;;;;;;;;;;;;;;;;5083934;28;19916;-78
2022/09/24 03:42:01;;;;;;;;;;;;;;;;;;5077108;28;19923;-77
2022/09/24 03:44:47;;;;;;;;;;;;;;;;;;5090560;28;19915;-78
2022/09/24 03:47:34;;;;;;;;;;;;;;;;;;5092161;28;19914;-78
2022/09/24 03:50:21;;;;;;;;;;;;;;;;;;5081099;28;19912;-79
2022/09/24 03:53:07;;;;;;;;;;;;;;;;;;5099878;28;19912;-79
2022/09/24 03:55:54;;;;;;;;;;;;;;;;;;5100607;28;19912;-79
2022/09/24 03:58:41;;;;;;;;;;;;;;;;;;5087795;28;19913;-78
2022/09/24 04:01:30;;;;;;;;;;;;;;;;;;5090863;28;19919;-78
2022/09/24 04:04:16;;;;;;;;;;;;;;;;;;5099813;28;19943;-77
2022/09/24 04:07:02;;;;;;;;;;;;;;;;;;5076688;28;20208;-77
2022/09/24 04:09:49;;;;;;;;;;;;;;;;;;5095014;28;19913;-79
2022/09/24 04:12:36;;;;;;;;;;;;;;;;;;5083601;28;20279;-78
2022/09/24 04:15:22;;;;;;;;;;;;;;;;;;5082438;28;19919;-78
2022/09/24 04:18:09;;;;;;;;;;;;;;;;;;5087768;28;19908;-78
2022/09/24 04:20:55;;;;;;;;;;;;;;;;;;5091589;28;19916;-78
2022/09/24 04:23:42;;;;;;;;;;;;;;;;;;5089317;28;20346;-77
2022/09/24 04:26:28;;;;;;;;;;;;;;;;;;5082836;28;20019;-80
2022/09/24 04:29:15;;;;;;;;;;;;;;;;;;5068334;28;19923;-78
2022/09/24 04:32:02;;;;;;;;;;;;;;;;;;5067449;28;19919;-78
2022/09/24 04:34:48;;;;;;;;;;;;;;;;;;5065067;28;19919;-79
2022/09/24 04:37:35;;;;;;;;;;;;;;;;;;5052875;28;19923;-78
2022/09/24 04:40:21;;;;;;;;;;;;;;;;;;5059856;28;19908;-79
2022/09/24 04:43:07;;;;;;;;;;;;;;;;;;5060546;28;19916;-78
2022/09/24 04:45:54;;;;;;;;;;;;;;;;;;5055568;28;19920;-79
2022/09/24 04:48:40;;;;;;;;;;;;;;;;;;5056250;28;19971;-78
2022/09/24 04:51:27;;;;;;;;;;;;;;;;;;5065873;28;19917;-79
2022/09/24 04:54:14;;;;;;;;;;;;;;;;;;5057763;28;19924;-78
2022/09/24 04:57:00;;;;;;;;;;;;;;;;;;5069910;28;19915;-78
2022/09/24 04:59:47;;;;;;;;;;;;;;;;;;5078349;28;19936;-78
2022/09/24 05:02:33;;;;;;;;;;;;;;;;;;5071693;28;19918;-80
2022/09/24 05:05:20;;;;;;;;;;;;;;;;;;5063841;28;19917;-79
2022/09/24 05:08:06;;;;;;;;;;;;;;;;;;5082366;28;19919;-79
2022/09/24 05:10:53;;;;;;;;;;;;;;;;;;5058405;28;19909;-79
2022/09/24 05:13:39;;;;;;;;;;;;;;;;;;5063693;28;19920;-80
2022/09/24 05:16:25;;;;;;;;;;;;;;;;;;5081079;28;19914;-78
2022/09/24 05:19:12;;;;;;;;;;;;;;;;;;5080089;28;19915;-78
2022/09/24 05:21:58;;;;;;;;;;;;;;;;;;5083578;28;19919;-78
2022/09/24 05:24:45;;;;;;;;;;;;;;;;;;5062271;28;19921;-77
2022/09/24 05:27:31;;;;;;;;;;;;;;;;;;5085729;28;19931;-77
2022/09/24 05:30:18;;;;;;;;;;;;;;;;;;5091516;28;19916;-80
2022/09/24 05:33:04;;;;;;;;;;;;;;;;;;5097306;28;19923;-81
2022/09/24 05:35:51;;;;;;;;;;;;;;;;;;5090658;28;20308;-79
2022/09/24 05:38:37;;;;;;;;;;;;;;;;;;5091621;28;19909;-80
2022/09/24 05:41:24;;;;;;;;;;;;;;;;;;5084670;28;19912;-78
2022/09/24 05:44:10;;;;;;;;;;;;;;;;;;5079912;28;19927;-79
2022/09/24 05:46:57;;;;;;;;;;;;;;;;;;5087654;28;19958;-79
2022/09/24 05:49:43;;;;;;;;;;;;;;;;;;5089072;28;19918;-79
2022/09/24 05:52:29;;;;;;;;;;;;;;;;;;5081343;28;19913;-80
2022/09/24 05:55:16;;;;;;;;;;;;;;;;;;5087654;28;19990;-79
2022/09/24 05:58:02;;;;;;;;;;;;;;;;;;5087468;28;19912;-79
2022/09/24 06:00:49;;;;;;;;;;;;;;;;;;5080192;28;20255;-79
2022/09/24 06:03:35;;;;;;;;;;;;;;;;;;5080175;28;19926;-79
2022/09/24 06:06:22;;;;;;;;;;;;;;;;;;5084961;28;19912;-79
2022/09/24 06:09:08;;;;;;;;;;;;;;;;;;5069118;28;20319;-81
2022/09/24 06:11:55;;;;;;;;;;;;;;;;;;5082716;28;19922;-77
2022/09/24 06:14:42;;;;;;;;;;;;;;;;;;5090718;28;19927;-78
2022/09/24 06:17:30;;;;;;;;;;;;;;;;;;5077259;28;19908;-78
2022/09/24 06:20:16;;;;;;;;;;;;;;;;;;5083331;28;19913;-77
2022/09/24 06:23:03;;;;;;;;;;;;;;;;;;5086717;28;19942;-79
2022/09/24 06:25:50;;;;;;;;;;;;;;;;;;5080521;28;19931;-78
2022/09/24 06:28:36;;;;;;;;;;;;;;;;;;5095819;28;20295;-79
2022/09/24 06:31:23;;;;;;;;;;;;;;;;;;5087382;28;19915;-79
2022/09/24 06:34:09;;;;;;;;;;;;;;;;;;5083164;28;19927;-79
2022/09/24 06:36:56;;;;;;;;;;;;;;;;;;5084501;28;19916;-80
2022/09/24 06:39:42;;;;;;;;;;;;;;;;;;5080157;28;19908;-78
2022/09/24 06:42:29;;;;;;;;;;;;;;;;;;5078743;28;19920;-79
2022/09/24 06:45:16;;;;;;;;;;;;;;;;;;5083614;28;19922;-78
2022/09/24 06:48:02;;;;;;;;;;;;;;;;;;5078474;28;20268;-78
2022/09/24 06:50:49;;;;;;;;;;;;;;;;;;5086312;28;19927;-77
2022/09/24 06:53:35;;;;;;;;;;;;;;;;;;5079324;28;19920;-77
2022/09/24 06:56:23;;;;;;;;;;;;;;;;;;5080354;28;20276;-76
2022/09/24 06:59:09;;;;;;;;;;;;;;;;;;5078478;28;20279;-76
2022/09/24 07:01:57;;;;;;;;;;;;;;;;;;5077948;28;19916;-77
2022/09/24 07:04:43;;;;;;;;;;;;;;;;;;5082440;28;19920;-75
2022/09/24 07:07:33;;;;;;;;;;;;;;;;;;5081925;28;19915;-76
2022/09/24 07:10:19;;;;;;;;;;;;;;;;;;5077144;28;19927;-76
2022/09/24 07:13:09;;;;;;;;;;;;;;;;;;5087322;28;19919;-77
2022/09/24 07:15:55;;;;;;;;;;;;;;;;;;5078147;28;19943;-77
2022/09/24 07:18:42;;;;;;;;;;;;;;;;;;5075575;28;19927;-76
2022/09/24 07:21:28;;;;;;;;;;;;;;;;;;5083733;28;19908;-77
2022/09/24 07:24:15;;;;;;;;;;;;;;;;;;5075226;28;19924;-76
2022/09/24 07:27:01;;;;;;;;;;;;;;;;;;5078229;28;19928;-76
2022/09/24 07:29:48;;;;;;;;;;;;;;;;;;5073522;28;20371;-76
2022/09/24 07:32:34;;;;;;;;;;;;;;;;;;5065927;28;19912;-75
2022/09/24 07:35:20;;;;;;;;;;;;;;;;;;5077299;28;19909;-78
2022/09/24 07:38:07;;;;;;;;;;;;;;;;;;5083628;28;19909;-77
2022/09/24 07:40:56;;;;;;;;;;;;;;;;;;5082305;28;19916;-77
2022/09/24 07:43:43;;;;;;;;;;;;;;;;;;5077965;28;20279;-75
2022/09/24 07:46:30;;;;;;;;;;;;;;;;;;5076814;28;20002;-78
2022/09/24 07:49:16;;;;;;;;;;;;;;;;;;5091446;28;19908;-76
2022/09/24 07:52:03;;;;;;;;;;;;;;;;;;5090139;28;19919;-76
2022/09/24 07:54:51;;;;;;;;;;;;;;;;;;5083442;28;19916;-76
2022/09/24 07:57:38;;;;;;;;;;;;;;;;;;5079365;28;19912;-77
2022/09/24 08:00:24;;;;;;;;;;;;;;;;;;5085618;28;20011;-76
2022/09/24 08:03:11;;;;;;;;;;;;;;;;;;5075825;28;19920;-75
2022/09/24 08:05:58;;;;;;;;;;;;;;;;;;5078393;28;19912;-76
2022/09/24 08:08:45;;;;;;;;;;;;;;;;;;5081265;28;20397;-76
2022/09/24 08:11:32;;;;;;;;;;;;;;;;;;5080502;28;19919;-77
2022/09/24 08:14:19;;;;;;;;;;;;;;;;;;5079704;28;19908;-76
2022/09/24 08:17:05;;;;;;;;;;;;;;;;;;5077339;28;19923;-76
2022/09/24 08:19:55;;;;;;;;;;;;;;;;;;5077763;28;19908;-76
2022/09/24 08:22:42;;;;;;;;;;;;;;;;;;5084810;28;20282;-76
2022/09/24 08:25:28;;;;;;;;;;;;;;;;;;5075604;28;19923;-76
2022/09/24 08:28:18;;;;;;;;;;;;;;;;;;5094423;28;19926;-78
2022/09/24 08:31:07;;;;;;;;;;;;;;;;;;5084490;28;19916;-75
2022/09/24 08:33:54;;;;;;;;;;;;;;;;;;5087280;28;19916;-76
2022/09/24 08:36:40;;;;;;;;;;;;;;;;;;5075787;28;19923;-76
2022/09/24 08:39:27;;;;;;;;;;;;;;;;;;5077958;28;19923;-76
2022/09/24 08:42:13;;;;;;;;;;;;;;;;;;5079907;28;20390;-76
2022/09/24 08:48:05;;;;;;;;;;;;;;;;;;5075876;28;19916;-76
2022/09/24 08:50:51;;;;;;;;;;;;;;;;;;5074810;28;19920;-75
2022/09/24 08:53:38;;;;;;;;;;;;;;;;;;5073204;28;20291;-75
2022/09/24 08:56:24;;;;;;;;;;;;;;;;;;5070826;28;19916;-74
2022/09/24 08:59:11;;;;;;;;;;;;;;;;;;5080884;28;19916;-75
2022/09/24 09:01:58;;;;;;;;;;;;;;;;;;5085208;28;19919;-75
2022/09/24 09:04:44;;;;;;;;;;;;;;;;;;5076404;28;19934;-75
2022/09/24 09:07:30;;;;;;;;;;;;;;;;;;5082629;28;20402;-75
2022/09/24 09:10:17;;;;;;;;;;;;;;;;;;5089496;28;19912;-74
2022/09/24 09:13:04;;;;;;;;;;;;;;;;;;5088975;28;19922;-74
2022/09/24 09:15:51;;;;;;;;;;;;;;;;;;5070411;28;19920;-74
2022/09/24 09:18:37;;;;;;;;;;;;;;;;;;5084145;28;19907;-75
2022/09/24 09:21:24;;;;;;;;;;;;;;;;;;5089700;28;19915;-75
2022/09/24 09:24:12;;;;;;;;;;;;;;;;;;5075168;28;20237;-75
2022/09/24 09:26:59;;;;;;;;;;;;;;;;;;5083663;28;20411;-75
2022/09/24 09:29:46;;;;;;;;;;;;;;;;;;5080306;28;19916;-75
2022/09/24 09:32:32;;;;;;;;;;;;;;;;;;5076338;28;19912;-75
2022/09/24 09:35:19;;;;;;;;;;;;;;;;;;5086631;28;19919;-75
2022/09/24 09:38:05;;;;;;;;;;;;;;;;;;5081186;28;19916;-75
2022/09/24 09:40:52;;;;;;;;;;;;;;;;;;5080253;28;19923;-75
2022/09/24 09:43:39;;;;;;;;;;;;;;;;;;5085968;28;19918;-75
2022/09/24 09:46:25;;;;;;;;;;;;;;;;;;5076494;28;19927;-74
2022/09/24 09:49:12;;;;;;;;;;;;;;;;;;5073187;28;19954;-75
2022/09/24 09:51:58;;;;;;;;;;;;;;;;;;5075819;28;20364;-75
2022/09/24 09:54:45;;;;;;;;;;;;;;;;;;5084432;28;19908;-74
2022/09/24 09:57:32;;;;;;;;;;;;;;;;;;5087665;28;19916;-74
2022/09/24 10:00:18;;;;;;;;;;;;;;;;;;5090880;28;19912;-75
2022/09/24 10:03:05;;;;;;;;;;;;;;;;;;5080423;28;19920;-75
2022/09/24 10:05:51;;;;;;;;;;;;;;;;;;5087544;28;19919;-75
2022/09/24 10:08:39;;;;;;;;;;;;;;;;;;5086953;28;19938;-75
2022/09/24 10:11:25;;;;;;;;;;;;;;;;;;5081952;28;19920;-75
2022/09/24 10:14:12;;;;;;;;;;;;;;;;;;5079293;28;19915;-75
2022/09/24 10:17:04;;;;;;;;;;;;;;;;;;5082493;28;19916;-74
2022/09/24 10:19:51;;;;;;;;;;;;;;;;;;5088048;28;19911;-75
2022/09/24 10:22:38;;;;;;;;;;;;;;;;;;5091566;28;19917;-75
2022/09/24 10:25:25;;;;;;;;;;;;;;;;;;5101676;28;19939;-75
2022/09/24 10:31:16;;;;;;;;;;;;;;;;;;5087919;28;19916;-74
2022/09/24 10:34:03;;;;;;;;;;;;;;;;;;5083366;28;19914;-75
2022/09/24 10:36:49;;;;;;;;;;;;;;;;;;5097034;28;19947;-75
2022/09/24 10:39:36;;;;;;;;;;;;;;;;;;5084958;28;19920;-74
2022/09/24 10:42:22;;;;;;;;;;;;;;;;;;5070630;28;19913;-75
2022/09/24 10:45:09;;;;;;;;;;;;;;;;;;5087743;28;19920;-74
2022/09/24 10:47:55;;;;;;;;;;;;;;;;;;5080908;28;19920;-75
2022/09/24 10:50:42;;;;;;;;;;;;;;;;;;5078986;28;20022;-76
2022/09/24 10:53:29;;;;;;;;;;;;;;;;;;5084137;28;19932;-74
2022/09/24 10:56:15;;;;;;;;;;;;;;;;;;5076515;28;19923;-75
2022/09/24 10:59:02;;;;;;;;;;;;;;;;;;5088017;28;19916;-75
2022/09/24 11:01:48;;;;;;;;;;;;;;;;;;5081692;28;20367;-75
2022/09/24 11:04:35;;;;;;;;;;;;;;;;;;5083534;28;19932;-75
2022/09/24 11:07:21;;;;;;;;;;;;;;;;;;5088131;28;19941;-74
2022/09/24 11:10:08;;;;;;;;;;;;;;;;;;5066344;28;19923;-75
2022/09/24 11:12:55;;;;;;;;;;;;;;;;;;5088955;28;19923;-75
2022/09/24 11:15:41;;;;;;;;;;;;;;;;;;5077503;28;19923;-74
2022/09/24 11:18:28;;;;;;;;;;;;;;;;;;5084713;28;19924;-75
2022/09/24 11:21:14;;;;;;;;;;;;;;;;;;5099094;28;20284;-75
2022/09/24 11:24:01;;;;;;;;;;;;;;;;;;5091336;28;19922;-74
2022/09/24 11:26:47;;;;;;;;;;;;;;;;;;5087039;28;19920;-75
2022/09/24 11:29:34;;;;;;;;;;;;;;;;;;5090370;28;19915;-74
2022/09/24 11:32:20;;;;;;;;;;;;;;;;;;5085245;28;19927;-75
2022/09/24 11:35:07;;;;;;;;;;;;;;;;;;5076938;28;19916;-75
2022/09/24 11:37:53;;;;;;;;;;;;;;;;;;5085340;28;19969;-75
2022/09/24 11:40:40;;;;;;;;;;;;;;;;;;5096491;28;19908;-75
2022/09/24 11:43:26;;;;;;;;;;;;;;;;;;5077298;28;19923;-75
2022/09/24 11:46:13;;;;;;;;;;;;;;;;;;5070963;28;19924;-76
2022/09/24 11:48:59;;;;;;;;;;;;;;;;;;5081597;28;19916;-76
2022/09/24 11:51:46;;;;;;;;;;;;;;;;;;5069966;28;19923;-76
2022/09/24 11:54:32;;;;;;;;;;;;;;;;;;5079507;28;20520;-74
2022/09/24 11:57:19;;;;;;;;;;;;;;;;;;5088558;28;19908;-76
2022/09/24 12:00:07;;;;;;;;;;;;;;;;;;5085847;28;19912;-75
2022/09/24 12:02:54;;;;;;;;;;;;;;;;;;5088562;28;19908;-75
2022/09/24 12:05:40;;;;;;;;;;;;;;;;;;5086995;28;19963;-76
2022/09/24 12:08:28;;;;;;;;;;;;;;;;;;5081148;28;19923;-74
2022/09/24 12:11:14;;;;;;;;;;;;;;;;;;5089876;28;19916;-75
2022/09/24 12:14:01;;;;;;;;;;;;;;;;;;5084131;28;19924;-74
2022/09/24 12:16:49;;;;;;;;;;;;;;;;;;5080194;28;19916;-75
2022/09/24 12:19:35;;;;;;;;;;;;;;;;;;5090921;28;19919;-75
2022/09/24 12:22:22;;;;;;;;;;;;;;;;;;5080662;28;19923;-74
2022/09/24 12:25:10;;;;;;;;;;;;;;;;;;5081503;28;19924;-75
2022/09/24 12:27:57;;;;;;;;;;;;;;;;;;5075630;28;20631;-75
2022/09/24 12:33:48;;;;;;;;;;;;;;;;;;5089166;28;20364;-75
2022/09/24 12:36:35;;;;;;;;;;;;;;;;;;5088012;28;19919;-75
2022/09/24 12:39:21;;;;;;;;;;;;;;;;;;5080389;28;19908;-75
2022/09/24 12:42:08;;;;;;;;;;;;;;;;;;5078565;28;20018;-74
2022/09/24 12:44:54;;;;;;;;;;;;;;;;;;5085882;28;19920;-75
2022/09/24 12:47:41;;;;;;;;;;;;;;;;;;5087896;28;19935;-75
2022/09/24 12:50:27;;;;;;;;;;;;;;;;;;5093389;28;19919;-75
2022/09/24 12:53:14;;;;;;;;;;;;;;;;;;5084448;28;20271;-75
2022/09/24 12:56:01;;;;;;;;;;;;;;;;;;5087403;28;20276;-74
2022/09/24 12:58:48;;;;;;;;;;;;;;;;;;5096745;28;19915;-75
2022/09/24 13:01:34;;;;;;;;;;;;;;;;;;5094837;28;19935;-76
2022/09/24 13:04:23;;;;;;;;;;;;;;;;;;5079385;28;19912;-75
2022/09/24 13:07:09;;;;;;;;;;;;;;;;;;5087876;28;19920;-74
2022/09/24 13:09:56;;;;;;;;;;;;;;;;;;5089218;28;19919;-77
2022/09/24 13:12:42;;;;;;;;;;;;;;;;;;5070503;28;19931;-79
2022/09/24 13:15:29;;;;;;;;;;;;;;;;;;5080397;28;19947;-83
2022/09/24 13:18:16;;;;;;;;;;;;;;;;;;5080867;28;19936;-82
2022/09/24 13:21:02;;;;;;;;;;;;;;;;;;5081726;28;19913;-83
2022/09/24 13:23:49;;;;;;;;;;;;;;;;;;5081063;28;19908;-83
2022/09/24 13:26:35;;;;;;;;;;;;;;;;;;5067646;28;19927;-81
2022/09/24 13:29:21;;;;;;;;;;;;;;;;;;5075587;28;20303;-81
2022/09/24 13:32:08;;;;;;;;;;;;;;;;;;5075254;28;19919;-81
2022/09/24 13:34:54;;;;;;;;;;;;;;;;;;5080409;28;19912;-82
2022/09/24 13:37:41;;;;;;;;;;;;;;;;;;5077842;28;20255;-81
2022/09/24 13:40:28;;;;;;;;;;;;;;;;;;5079900;28;19916;-81
2022/09/24 13:43:14;;;;;;;;;;;;;;;;;;5083413;28;19919;-82
2022/09/24 13:46:01;;;;;;;;;;;;;;;;;;5083008;28;19916;-81
2022/09/24 13:48:47;;;;;;;;;;;;;;;;;;5082986;28;19909;-82
2022/09/24 13:51:35;;;;;;;;;;;;;;;;;;5096810;28;19912;-83
2022/09/24 13:54:22;;;;;;;;;;;;;;;;;;5091580;28;19927;-81
2022/09/24 13:57:09;;;;;;;;;;;;;;;;;;5085283;28;19954;-82
2022/09/24 13:59:55;;;;;;;;;;;;;;;;;;5083777;28;19916;-81
2022/09/24 14:02:42;;;;;;;;;;;;;;;;;;5085955;28;19916;-81
2022/09/24 14:05:28;;;;;;;;;;;;;;;;;;5079106;28;19932;-82
2022/09/24 14:08:15;;;;;;;;;;;;;;;;;;5083779;28;19931;-82
2022/09/24 14:11:02;;;;;;;;;;;;;;;;;;5081880;28;19916;-81
2022/09/24 14:13:48;;;;;;;;;;;;;;;;;;5081080;28;20371;-80
2022/09/24 14:16:36;;;;;;;;;;;;;;;;;;5071218;28;19943;-80
2022/09/24 14:19:22;;;;;;;;;;;;;;;;;;5081360;28;19920;-79
2022/09/24 14:22:09;;;;;;;;;;;;;;;;;;5082819;28;19912;-81
2022/09/24 14:24:55;;;;;;;;;;;;;;;;;;5071531;28;20257;-82
2022/09/24 14:27:42;;;;;;;;;;;;;;;;;;5069198;28;19920;-82
2022/09/24 14:30:28;;;;;;;;;;;;;;;;;;5082784;28;19913;-82
2022/09/24 14:33:15;;;;;;;;;;;;;;;;;;5076012;28;19912;-82
2022/09/24 14:36:01;;;;;;;;;;;;;;;;;;5073119;28;19920;-81
2022/09/24 14:38:48;;;;;;;;;;;;;;;;;;5082195;28;19919;-81
2022/09/24 14:41:34;;;;;;;;;;;;;;;;;;5076039;28;19924;-83
2022/09/24 14:44:21;;;;;;;;;;;;;;;;;;5084190;28;19917;-83
2022/09/24 14:47:07;;;;;;;;;;;;;;;;;;5086647;28;19922;-84
2022/09/24 14:49:53;;;;;;;;;;;;;;;;;;5092634;28;19912;-83
2022/09/24 14:52:40;;;;;;;;;;;;;;;;;;5071949;28;19919;-83
2022/09/24 14:55:26;;;;;;;;;;;;;;;;;;5094251;28;20030;-83
2022/09/24 14:58:14;;;;;;;;;;;;;;;;;;5078896;28;19909;-81
2022/09/24 15:01:00;;;;;;;;;;;;;;;;;;5077609;28;19946;-81
2022/09/24 15:03:47;;;;;;;;;;;;;;;;;;5079401;28;20454;-80
2022/09/24 15:06:33;;;;;;;;;;;;;;;;;;5083297;28;19924;-81
2022/09/24 15:09:20;;;;;;;;;;;;;;;;;;5084552;28;19923;-81
2022/09/24 15:12:07;;;;;;;;;;;;;;;;;;5092649;28;19943;-81
2022/09/24 15:14:53;;;;;;;;;;;;;;;;;;5082903;28;19908;-82
2022/09/24 15:17:40;;;;;;;;;;;;;;;;;;5081030;28;20272;-80
2022/09/24 15:20:26;;;;;;;;;;;;;;;;;;5071678;28;20366;-82
2022/09/24 15:23:14;;;;;;;;;;;;;;;;;;5074171;28;19909;-81
2022/09/24 15:26:00;;;;;;;;;;;;;;;;;;5087604;28;20287;-83
2022/09/24 15:28:47;;;;;;;;;;;;;;;;;;5079195;28;19922;-82
2022/09/24 15:31:34;;;;;;;;;;;;;;;;;;5088235;28;19935;-82
2022/09/24 15:34:20;;;;;;;;;;;;;;;;;;5080579;28;19934;-83
2022/09/24 15:37:07;;;;;;;;;;;;;;;;;;5080855;28;19916;-83
2022/09/24 15:39:53;;;;;;;;;;;;;;;;;;5085468;28;19920;-83
2022/09/24 15:42:40;;;;;;;;;;;;;;;;;;5080645;28;19916;-83
2022/09/24 15:45:26;;;;;;;;;;;;;;;;;;5083379;28;20367;-83
2022/09/24 15:48:13;;;;;;;;;;;;;;;;;;5078722;28;19919;-83
2022/09/24 15:50:59;;;;;;;;;;;;;;;;;;5084657;28;19909;-84
2022/09/24 15:53:46;;;;;;;;;;;;;;;;;;5086576;28;20261;-83
2022/09/24 15:56:34;;;;;;;;;;;;;;;;;;5079012;28;19908;-82
2022/09/24 15:59:21;;;;;;;;;;;;;;;;;;5070200;28;19926;-82
2022/09/24 16:02:07;;;;;;;;;;;;;;;;;;5081468;28;19946;-83
2022/09/24 16:04:54;;;;;;;;;;;;;;;;;;5075156;28;19920;-87
2022/09/24 16:07:40;;;;;;;;;;;;;;;;;;5081347;28;19916;-84
2022/09/24 16:10:27;;;;;;;;;;;;;;;;;;5078467;28;20601;-81
2022/09/24 16:13:13;;;;;;;;;;;;;;;;;;5082107;28;20008;-84
2022/09/24 16:16:00;;;;;;;;;;;;;;;;;;5080530;28;20202;-83
2022/09/24 16:18:56;;;;;;;;;;;;;;;;;;5084351;28;19923;-83
2022/09/24 16:21:43;;;;;;;;;;;;;;;;;;5066786;28;19920;-83
2022/09/24 16:24:29;;;;;;;;;;;;;;;;;;5078356;28;19931;-83
2022/09/24 16:27:16;;;;;;;;;;;;;;;;;;5083658;28;20374;-83
2022/09/24 16:30:02;;;;;;;;;;;;;;;;;;5080575;28;19918;-84
2022/09/24 16:32:49;;;;;;;;;;;;;;;;;;5080733;28;19912;-83
2022/09/24 16:35:35;;;;;;;;;;;;;;;;;;5077922;28;20529;-83
2022/09/24 16:38:22;;;;;;;;;;;;;;;;;;5079009;28;19920;-83
2022/09/24 16:41:09;;;;;;;;;;;;;;;;;;5074277;28;19947;-88
2022/09/24 16:43:57;;;;;;;;;;;;;;;;;;5067931;28;19920;-87
2022/09/24 16:46:43;;;;;;;;;;;;;;;;;;5082829;28;19925;-85
2022/09/24 16:49:30;;;;;;;;;;;;;;;;;;5083268;28;19939;-84
2022/09/24 16:52:16;;;;;;;;;;;;;;;;;;5081004;28;20416;-83
2022/09/24 16:55:03;;;;;;;;;;;;;;;;;;5076929;28;19920;-84
2022/09/24 16:57:49;;;;;;;;;;;;;;;;;;5084843;28;19922;-84
2022/09/24 17:00:36;;;;;;;;;;;;;;;;;;5083081;28;20368;-85
2022/09/24 17:03:22;;;;;;;;;;;;;;;;;;5097144;28;19926;-92
2022/09/24 17:06:08;;;;;;;;;;;;;;;;;;5076092;28;19928;-85
2022/09/24 17:12:00;;;;;;;;;;;;;;;;;;5088101;28;19912;-86
2022/09/24 17:14:46;;;;;;;;;;;;;;;;;;5079934;28;19920;-86
2022/09/24 17:17:33;;;;;;;;;;;;;;;;;;5078847;28;20493;-83
2022/09/24 17:20:20;;;;;;;;;;;;;;;;;;5082964;28;19916;-86
2022/09/24 17:23:06;;;;;;;;;;;;;;;;;;5087026;28;20388;-86
2022/09/24 17:25:53;;;;;;;;;;;;;;;;;;5069458;28;19931;-86
2022/09/24 17:28:39;;;;;;;;;;;;;;;;;;5082008;28;20367;-83
2022/09/24 17:31:26;;;;;;;;;;;;;;;;;;5080645;28;19922;-86
2022/09/24 17:34:14;;;;;;;;;;;;;;;;;;5085154;28;19908;-86
2022/09/24 17:37:00;;;;;;;;;;;;;;;;;;5069599;28;19916;-92
2022/09/24 17:39:46;;;;;;;;;;;;;;;;;;5078299;28;19912;-83
2022/09/24 17:42:33;;;;;;;;;;;;;;;;;;5084007;28;19954;-88
2022/09/24 17:45:20;;;;;;;;;;;;;;;;;;5079062;28;19934;-84
2022/09/24 17:48:07;;;;;;;;;;;;;;;;;;5083481;28;19966;-86
2022/09/24 17:50:53;;;;;;;;;;;;;;;;;;5077812;28;19931;-80
2022/09/24 17:53:40;;;;;;;;;;;;;;;;;;5061147;28;20453;-82
2022/09/24 17:56:26;;;;;;;;;;;;;;;;;;5077999;28;19916;-80
2022/09/24 17:59:13;;;;;;;;;;;;;;;;;;5073081;28;20214;-83
2022/09/24 18:01:59;;;;;;;;;;;;;;;;;;5078363;28;20319;-81
2022/09/24 18:04:46;;;;;;;;;;;;;;;;;;5077904;28;20611;-81
2022/09/24 18:07:32;;;;;;;;;;;;;;;;;;5076574;28;19924;-83
2022/09/24 18:10:19;;;;;;;;;;;;;;;;;;5079520;28;20282;-82
2022/09/24 18:13:05;;;;;;;;;;;;;;;;;;5081490;28;19926;-84
2022/09/24 18:15:52;;;;;;;;;;;;;;;;;;5082276;28;19912;-84
2022/09/24 18:18:38;;;;;;;;;;;;;;;;;;5066150;28;20371;-82
2022/09/24 18:21:25;;;;;;;;;;;;;;;;;;5065994;28;19923;-79
2022/09/24 18:24:11;;;;;;;;;;;;;;;;;;5078498;28;20360;-80
2022/09/24 18:26:58;;;;;;;;;;;;;;;;;;5075862;28;19951;-80
2022/09/24 18:29:45;;;;;;;;;;;;;;;;;;5079235;28;19912;-79
2022/09/24 18:32:31;;;;;;;;;;;;;;;;;;5080589;28;19916;-79
2022/09/24 18:35:18;;;;;;;;;;;;;;;;;;5079460;28;20328;-82
2022/09/24 18:38:04;;;;;;;;;;;;;;;;;;5080751;28;19916;-82
2022/09/24 18:40:52;;;;;;;;;;;;;;;;;;5081051;28;19919;-81
2022/09/24 18:43:39;;;;;;;;;;;;;;;;;;5081599;28;19920;-82
2022/09/24 18:46:25;;;;;;;;;;;;;;;;;;5064403;28;19932;-78
2022/09/24 18:49:11;;;;;;;;;;;;;;;;;;5078580;28;19912;-82
2022/09/24 18:51:58;;;;;;;;;;;;;;;;;;5079527;28;19920;-81
2022/09/24 18:54:44;;;;;;;;;;;;;;;;;;5077950;28;19922;-81
2022/09/24 18:57:31;;;;;;;;;;;;;;;;;;5080131;28;19916;-84
2022/09/24 19:03:22;;;;;;;;;;;;;;;;;;5079721;28;20486;-82
2022/09/24 19:06:11;;;;;;;;;;;;;;;;;;5068178;28;19928;-84
2022/09/24 19:08:59;;;;;;;;;;;;;;;;;;5079404;28;19923;-82
2022/09/24 19:11:45;;;;;;;;;;;;;;;;;;5081320;28;19916;-82
2022/09/24 19:14:32;;;;;;;;;;;;;;;;;;5077022;28;20360;-80
2022/09/24 19:17:18;;;;;;;;;;;;;;;;;;5077340;28;19920;-81
2022/09/24 19:20:05;;;;;;;;;;;;;;;;;;5077401;28;19912;-83